createdAt,value
2022-10-21T00:00:19.224Z,98028.00
2022-10-21T00:05:32.611Z,98043.00
2022-10-21T00:10:38.499Z,98022.00
2022-10-21T00:15:41.249Z,98013.00
2022-10-21T00:20:43.951Z,98028.00
2022-10-21T00:25:46.704Z,98021.00
2022-10-21T00:31:07.070Z,98004.00
2022-10-21T00:36:28.491Z,98006.00
2022-10-21T00:47:34.420Z,97986.00
2022-10-21T00:52:53.611Z,97972.00
2022-10-21T00:58:11.476Z,97962.00
2022-10-21T01:03:49.824Z,97962.00
2022-10-21T01:18:28.105Z,97900.00
2022-10-21T01:23:46.964Z,97880.00
2022-10-21T01:29:19.361Z,97880.00
2022-10-21T01:34:37.481Z,97879.00
2022-10-21T01:39:48.253Z,97880.00
2022-10-21T01:45:23.981Z,97906.00
2022-10-21T01:50:30.763Z,97890.00
2022-10-21T01:55:33.863Z,97888.00
2022-10-21T02:00:39.456Z,97872.00
2022-10-21T02:06:04.331Z,97868.00
2022-10-21T02:11:25.219Z,97881.00
2022-10-21T02:16:46.552Z,97867.00
2022-10-21T02:22:12.297Z,97863.00
2022-10-21T02:27:35.454Z,97850.00
2022-10-21T02:33:06.825Z,97875.00
2022-10-21T02:38:33.117Z,97881.00
2022-10-21T02:43:56.385Z,97883.00
2022-10-21T02:49:07.968Z,97877.00
2022-10-21T02:54:17.246Z,97860.00
2022-10-21T02:59:22.747Z,97855.00
2022-10-21T03:04:50.204Z,97858.00
2022-10-21T03:09:55.046Z,97856.00
2022-10-21T03:14:57.830Z,97841.00
2022-10-21T03:20:00.618Z,97841.00
2022-10-21T03:25:06.249Z,97831.00
2022-10-21T03:30:09.915Z,97822.00
2022-10-21T03:35:12.713Z,97847.00
2022-10-21T03:40:15.732Z,97845.00
2022-10-21T03:45:18.652Z,97832.00
2022-10-21T03:50:25.989Z,97827.00
2022-10-21T03:55:29.835Z,97834.00
2022-10-21T04:00:32.713Z,97806.00
2022-10-21T04:05:53.063Z,97817.00
2022-10-21T04:11:07.449Z,97802.00
2022-10-21T04:16:32.210Z,97789.00
2022-10-21T04:21:56.933Z,97798.00
2022-10-21T04:27:31.316Z,97793.00
2022-10-21T04:32:52.792Z,97784.00
2022-10-21T04:38:06.829Z,97772.00
2022-10-21T04:43:40.514Z,97769.00
2022-10-21T04:48:54.152Z,97772.00
2022-10-21T04:54:03.303Z,97744.00
2022-10-21T04:59:15.233Z,97728.00
2022-10-21T05:04:39.975Z,97725.00
2022-10-21T05:09:43.223Z,97751.00
2022-10-21T05:14:45.937Z,97750.00
2022-10-21T05:19:48.638Z,97747.00
2022-10-21T05:24:51.412Z,97732.00
2022-10-21T05:29:54.621Z,97730.00
2022-10-21T05:34:57.503Z,97736.00
2022-10-21T05:40:00.304Z,97737.00
2022-10-21T05:45:03.190Z,97746.00
2022-10-21T05:50:06.411Z,97744.00
2022-10-21T05:55:10.030Z,97753.00
2022-10-21T06:00:14.038Z,97765.00
2022-10-21T06:05:33.007Z,97774.00
2022-10-21T06:10:42.476Z,97759.00
2022-10-21T06:15:48.757Z,97766.00
2022-10-21T06:21:26.721Z,97757.00
2022-10-21T06:26:44.423Z,97777.00
2022-10-21T06:32:04.677Z,97777.00
2022-10-21T06:37:13.293Z,97762.00
2022-10-21T06:42:33.898Z,97770.00
2022-10-21T06:47:57.516Z,97754.00
2022-10-21T06:53:14.181Z,97748.00
2022-10-21T06:58:41.044Z,97754.00
2022-10-21T07:04:08.207Z,97754.00
2022-10-21T07:09:17.521Z,97751.00
2022-10-21T07:14:29.462Z,97759.00
2022-10-21T07:19:33.441Z,97749.00
2022-10-21T07:24:36.754Z,97741.00
2022-10-21T07:29:39.506Z,97730.00
2022-10-21T07:34:42.366Z,97737.00
2022-10-21T07:39:45.135Z,97733.00
2022-10-21T07:44:57.382Z,97738.00
2022-10-21T07:50:00.136Z,97716.00
2022-10-21T07:55:03.007Z,97712.00
2022-10-21T08:00:07.217Z,97711.00
2022-10-21T08:05:15.344Z,97709.00
2022-10-21T08:10:18.688Z,97710.00
2022-10-21T08:15:21.456Z,97705.00
2022-10-21T08:20:25.708Z,97693.00
2022-10-21T08:25:30.184Z,97685.00
2022-10-21T08:31:12.927Z,97689.00
2022-10-21T08:37:05.264Z,97676.00
2022-10-21T08:42:33.189Z,97675.00
2022-10-21T08:48:03.467Z,97669.00
2022-10-21T08:53:40.999Z,97662.00
2022-10-21T08:59:04.323Z,97662.00
2022-10-21T09:04:55.679Z,97668.00
2022-10-21T09:10:09.073Z,97661.00
2022-10-21T09:15:58.873Z,97657.00
2022-10-21T09:21:47.486Z,97660.00
2022-10-21T09:27:04.968Z,97665.00
2022-10-21T09:32:54.358Z,97689.00
2022-10-21T09:38:48.779Z,97694.00
2022-10-21T09:44:03.576Z,97690.00
2022-10-21T09:50:02.138Z,97680.00
2022-10-21T09:54:59.942Z,97692.00
2022-10-21T10:00:06.124Z,97708.00
2022-10-21T10:06:01.399Z,97707.00
2022-10-21T10:11:29.407Z,97709.00
2022-10-21T10:16:53.306Z,97712.00
2022-10-21T10:22:17.122Z,97721.00
2022-10-21T10:27:36.627Z,97709.00
2022-10-21T10:32:59.904Z,97716.00
2022-10-21T10:38:31.977Z,97711.00
2022-10-21T10:44:01.493Z,97724.00
2022-10-21T10:49:23.200Z,97713.00
2022-10-21T10:54:28.379Z,97713.00
2022-10-21T10:59:52.422Z,97706.00
2022-10-21T11:05:52.619Z,97702.00
2022-10-21T11:11:42.642Z,97696.00
2022-10-21T11:17:16.786Z,97682.00
2022-10-21T11:22:44.203Z,97681.00
2022-10-21T11:28:39.074Z,97679.00
2022-10-21T11:34:13.622Z,97682.00
2022-10-21T11:39:41.379Z,97684.00
2022-10-21T11:44:56.042Z,97684.00
2022-10-21T11:50:26.145Z,97695.00
2022-10-21T11:55:41.188Z,97691.00
2022-10-21T12:00:58.297Z,97697.00
2022-10-21T12:06:48.392Z,97695.00
2022-10-21T12:12:31.481Z,97697.00
2022-10-21T12:17:58.048Z,97677.00
2022-10-21T12:23:27.887Z,97680.00
2022-10-21T12:29:00.105Z,97694.00
2022-10-21T12:34:15.075Z,97686.00
2022-10-21T12:39:49.361Z,97691.00
2022-10-21T12:44:53.431Z,97680.00
2022-10-21T12:50:14.223Z,97680.00
2022-10-21T12:55:27.255Z,97699.00
2022-10-21T13:00:29.937Z,97685.00
2022-10-21T13:05:55.676Z,97675.00
2022-10-21T13:11:10.501Z,97681.00
2022-10-21T13:16:19.991Z,97664.00
2022-10-21T13:21:53.083Z,97650.00
2022-10-21T13:27:55.434Z,97659.00
2022-10-21T13:33:22.550Z,97668.00
2022-10-21T13:38:59.810Z,97671.00
2022-10-21T13:44:28.573Z,97671.00
2022-10-21T13:49:34.359Z,97683.00
2022-10-21T13:54:37.179Z,97674.00
2022-10-21T13:59:39.944Z,97689.00
2022-10-21T14:04:56.354Z,97696.00
2022-10-21T14:10:00.150Z,97700.00
2022-10-21T14:15:09.033Z,97715.00
2022-10-21T14:20:33.780Z,97707.00
2022-10-21T14:25:36.731Z,97707.00
2022-10-21T14:30:40.207Z,97687.00
2022-10-21T14:35:43.250Z,97696.00
2022-10-21T14:47:05.884Z,97679.00
2022-10-21T14:52:52.344Z,97674.00
2022-10-21T14:58:10.442Z,97660.00
2022-10-21T15:03:44.905Z,97647.00
2022-10-21T15:09:01.040Z,97647.00
2022-10-21T15:14:18.290Z,97650.00
2022-10-21T15:19:26.139Z,97671.00
2022-10-21T15:24:42.052Z,97659.00
2022-10-21T15:29:47.892Z,97660.00
2022-10-21T15:34:52.015Z,97660.00
2022-10-21T15:39:54.710Z,97657.00
2022-10-21T15:44:57.479Z,97653.00
2022-10-21T15:50:00.228Z,97655.00
2022-10-21T15:55:02.943Z,97658.00
2022-10-21T16:00:19.246Z,97669.00
2022-10-21T16:05:33.908Z,97671.00
2022-10-21T16:10:51.986Z,97674.00
2022-10-21T16:16:20.741Z,97673.00
2022-10-21T16:21:25.420Z,97673.00
2022-10-21T16:26:47.041Z,97674.00
2022-10-21T16:32:06.143Z,97669.00
2022-10-21T16:37:40.519Z,97670.00
2022-10-21T16:43:06.644Z,97669.00
2022-10-21T16:48:31.535Z,97670.00
2022-10-21T16:53:50.689Z,97681.00
2022-10-21T16:58:58.671Z,97673.00
2022-10-21T17:04:20.380Z,97681.00
2022-10-21T17:09:27.413Z,97684.00
2022-10-21T17:14:30.141Z,97684.00
2022-10-21T17:19:32.917Z,97704.00
2022-10-21T17:24:35.617Z,97695.00
2022-10-21T17:29:38.349Z,97705.00
2022-10-21T17:34:41.242Z,97714.00
2022-10-21T17:39:44.585Z,97719.00
2022-10-21T17:44:47.368Z,97722.00
2022-10-21T17:49:50.117Z,97730.00
2022-10-21T17:54:52.860Z,97732.00
2022-10-21T17:59:56.242Z,97727.00
2022-10-21T18:05:04.097Z,97729.00
2022-10-21T18:10:08.138Z,97718.00
2022-10-21T18:15:11.193Z,97716.00
2022-10-21T18:20:15.706Z,97712.00
2022-10-21T18:25:18.453Z,97700.00
2022-10-21T18:30:21.245Z,97688.00
2022-10-21T18:35:24.939Z,97681.00
2022-10-21T18:40:28.770Z,97664.00
2022-10-21T18:45:31.453Z,97662.00
2022-10-21T18:50:38.000Z,97658.00
2022-10-21T18:55:41.165Z,97663.00
2022-10-21T19:00:43.887Z,97669.00
2022-10-21T19:05:46.607Z,97674.00
2022-10-21T19:10:56.663Z,97674.00
2022-10-21T19:16:22.437Z,97672.00
2022-10-21T19:21:41.430Z,97681.00
2022-10-21T19:27:04.934Z,97683.00
2022-10-21T19:32:32.307Z,97684.00
2022-10-21T19:37:55.010Z,97689.00
2022-10-21T19:43:10.095Z,97710.00
2022-10-21T19:48:33.335Z,97693.00
2022-10-21T19:53:52.579Z,97718.00
2022-10-21T19:59:01.957Z,97718.00
2022-10-21T20:04:17.936Z,97714.00
2022-10-21T20:09:20.883Z,97717.00
2022-10-21T20:14:23.642Z,97734.00
2022-10-21T20:19:26.416Z,97725.00
2022-10-21T20:24:29.137Z,97727.00
2022-10-21T20:29:31.834Z,97719.00
2022-10-21T20:34:37.490Z,97732.00
2022-10-21T20:39:40.472Z,97724.00
2022-10-21T20:44:43.253Z,97733.00
2022-10-21T20:49:46.002Z,97713.00
2022-10-21T20:54:51.218Z,97710.00
2022-10-21T20:59:53.964Z,97715.00
2022-10-21T21:05:09.285Z,97702.00
2022-10-21T21:10:28.220Z,97709.00
2022-10-21T21:15:31.119Z,97720.00
2022-10-21T21:20:33.825Z,97724.00
2022-10-21T21:25:36.527Z,97734.00
2022-10-21T21:30:39.228Z,97744.00
2022-10-21T21:35:41.908Z,97746.00
2022-10-21T21:40:53.637Z,97737.00
2022-10-21T21:46:32.371Z,97724.00
2022-10-21T21:51:54.900Z,97708.00
2022-10-21T21:57:26.829Z,97715.00
2022-10-21T22:02:49.617Z,97721.00
2022-10-21T22:08:02.960Z,97735.00
2022-10-21T22:13:46.621Z,97730.00
2022-10-21T22:19:07.294Z,97721.00
2022-10-21T22:29:40.873Z,97704.00
2022-10-21T22:34:43.941Z,97704.00
2022-10-21T22:39:46.540Z,97695.00
2022-10-21T22:44:49.242Z,97691.00
2022-10-21T22:49:52.234Z,97671.00
2022-10-21T22:54:55.029Z,97653.00
2022-10-21T22:59:57.729Z,97643.00
2022-10-21T23:05:17.631Z,97655.00
2022-10-21T23:10:25.749Z,97669.00
2022-10-21T23:15:28.451Z,97685.00
2022-10-21T23:20:31.678Z,97682.00
2022-10-21T23:25:35.752Z,97681.00
2022-10-21T23:30:38.809Z,97707.00
2022-10-21T23:35:41.477Z,97705.00
2022-10-21T23:40:44.579Z,97711.00
2022-10-21T23:46:03.763Z,97700.00
2022-10-21T23:51:20.322Z,97692.00
2022-10-21T23:56:42.608Z,97692.00
